sensor_id;sensor_type;location;lat;lon;timestamp;temperature;humidity
7000;DHT22;3540;53.242;10.408;2023-02-22T00:00:39;8.20;99.90
7000;DHT22;3540;53.242;10.408;2023-02-22T00:03:27;8.20;99.90
7000;DHT22;3540;53.242;10.408;2023-02-22T00:06:02;8.20;99.90
7000;DHT22;3540;53.242;10.408;2023-02-22T00:08:34;8.20;99.90
7000;DHT22;3540;53.242;10.408;2023-02-22T00:11:02;8.30;99.90
7000;DHT22;3540;53.242;10.408;2023-02-22T00:13:28;8.30;99.90
7000;DHT22;3540;53.242;10.408;2023-02-22T00:15:55;8.30;99.90
7000;DHT22;3540;53.242;10.408;2023-02-22T00:18:21;8.20;99.90
7000;DHT22;3540;53.242;10.408;2023-02-22T00:20:47;8.10;99.90
7000;DHT22;3540;53.242;10.408;2023-02-22T00:23:16;8.10;99.90
7000;DHT22;3540;53.242;10.408;2023-02-22T00:25:44;8.10;99.90
7000;DHT22;3540;53.242;10.408;2023-02-22T00:28:10;8.10;99.90
7000;DHT22;3540;53.242;10.408;2023-02-22T00:30:36;8.00;99.90
7000;DHT22;3540;53.242;10.408;2023-02-22T00:33:02;8.00;99.90
7000;DHT22;3540;53.242;10.408;2023-02-22T00:35:29;8.00;99.90
7000;DHT22;3540;53.242;10.408;2023-02-22T00:37:57;8.00;99.90
7000;DHT22;3540;53.242;10.408;2023-02-22T00:40:26;8.10;99.90
7000;DHT22;3540;53.242;10.408;2023-02-22T00:42:52;8.10;99.90
7000;DHT22;3540;53.242;10.408;2023-02-22T00:45:20;8.10;99.90
7000;DHT22;3540;53.242;10.408;2023-02-22T00:47:47;8.20;99.90
7000;DHT22;3540;53.242;10.408;2023-02-22T00:50:14;8.20;99.90
7000;DHT22;3540;53.242;10.408;2023-02-22T00:52:40;8.20;99.90
7000;DHT22;3540;53.242;10.408;2023-02-22T00:55:08;8.20;99.90
7000;DHT22;3540;53.242;10.408;2023-02-22T00:57:34;8.20;99.90
7000;DHT22;3540;53.242;10.408;2023-02-22T01:00:05;8.20;99.90
7000;DHT22;3540;53.242;10.408;2023-02-22T01:02:40;8.20;99.90
7000;DHT22;3540;53.242;10.408;2023-02-22T01:05:08;8.20;99.90
7000;DHT22;3540;53.242;10.408;2023-02-22T01:07:37;8.20;99.90
7000;DHT22;3540;53.242;10.408;2023-02-22T01:10:03;8.20;99.90
7000;DHT22;3540;53.242;10.408;2023-02-22T01:12:29;8.20;99.90
7000;DHT22;3540;53.242;10.408;2023-02-22T01:14:57;8.20;99.90
7000;DHT22;3540;53.242;10.408;2023-02-22T01:17:23;8.20;99.90
7000;DHT22;3540;53.242;10.408;2023-02-22T01:19:53;8.20;99.90
7000;DHT22;3540;53.242;10.408;2023-02-22T01:22:19;8.20;99.90
7000;DHT22;3540;53.242;10.408;2023-02-22T01:24:49;8.20;99.90
7000;DHT22;3540;53.242;10.408;2023-02-22T01:27:16;8.20;99.90
7000;DHT22;3540;53.242;10.408;2023-02-22T01:29:42;8.20;99.90
7000;DHT22;3540;53.242;10.408;2023-02-22T01:32:08;8.30;99.90
7000;DHT22;3540;53.242;10.408;2023-02-22T01:34:36;8.30;99.90
7000;DHT22;3540;53.242;10.408;2023-02-22T01:37:02;8.30;99.90
7000;DHT22;3540;53.242;10.408;2023-02-22T01:39:28;8.20;99.90
7000;DHT22;3540;53.242;10.408;2023-02-22T01:41:53;8.10;99.90
7000;DHT22;3540;53.242;10.408;2023-02-22T01:46:45;8.00;99.90
7000;DHT22;3540;53.242;10.408;2023-02-22T01:49:12;8.10;99.90
7000;DHT22;3540;53.242;10.408;2023-02-22T01:51:46;8.20;99.90
7000;DHT22;3540;53.242;10.408;2023-02-22T01:54:17;8.20;99.90
7000;DHT22;3540;53.242;10.408;2023-02-22T01:59:27;8.20;99.90
7000;DHT22;3540;53.242;10.408;2023-02-22T02:01:53;8.20;99.90
7000;DHT22;3540;53.242;10.408;2023-02-22T02:04:21;8.10;99.90
7000;DHT22;3540;53.242;10.408;2023-02-22T02:06:56;8.20;99.90
7000;DHT22;3540;53.242;10.408;2023-02-22T02:09:54;8.20;99.90
7000;DHT22;3540;53.242;10.408;2023-02-22T02:12:22;8.20;99.90
7000;DHT22;3540;53.242;10.408;2023-02-22T02:14:48;8.10;99.90
7000;DHT22;3540;53.242;10.408;2023-02-22T02:17:17;8.10;99.90
7000;DHT22;3540;53.242;10.408;2023-02-22T02:28:30;8.10;99.90
7000;DHT22;3540;53.242;10.408;2023-02-22T02:31:30;8.10;99.90
7000;DHT22;3540;53.242;10.408;2023-02-22T02:34:22;8.10;99.90
7000;DHT22;3540;53.242;10.408;2023-02-22T02:37:06;8.00;99.90
7000;DHT22;3540;53.242;10.408;2023-02-22T02:42:10;7.90;99.90
7000;DHT22;3540;53.242;10.408;2023-02-22T02:44:43;7.90;99.90
7000;DHT22;3540;53.242;10.408;2023-02-22T02:47:26;7.80;99.90
7000;DHT22;3540;53.242;10.408;2023-02-22T02:52:23;7.90;99.90
7000;DHT22;3540;53.242;10.408;2023-02-22T02:54:50;7.90;99.90
7000;DHT22;3540;53.242;10.408;2023-02-22T02:57:16;7.90;99.90
7000;DHT22;3540;53.242;10.408;2023-02-22T02:59:42;7.80;99.90
7000;DHT22;3540;53.242;10.408;2023-02-22T03:13:34;7.90;99.90
7000;DHT22;3540;53.242;10.408;2023-02-22T03:16:15;8.00;99.90
7000;DHT22;3540;53.242;10.408;2023-02-22T03:18:49;8.00;99.90
7000;DHT22;3540;53.242;10.408;2023-02-22T03:26:29;7.90;99.90
7000;DHT22;3540;53.242;10.408;2023-02-22T03:28:57;7.90;99.90
7000;DHT22;3540;53.242;10.408;2023-02-22T03:31:30;7.90;99.90
7000;DHT22;3540;53.242;10.408;2023-02-22T03:34:01;8.00;99.90
7000;DHT22;3540;53.242;10.408;2023-02-22T03:36:34;8.00;99.90
7000;DHT22;3540;53.242;10.408;2023-02-22T03:39:08;7.90;99.90
7000;DHT22;3540;53.242;10.408;2023-02-22T03:41:36;7.90;99.90
7000;DHT22;3540;53.242;10.408;2023-02-22T03:44:11;7.90;99.90
7000;DHT22;3540;53.242;10.408;2023-02-22T03:46:38;7.90;99.90
7000;DHT22;3540;53.242;10.408;2023-02-22T03:49:19;8.00;99.90
7000;DHT22;3540;53.242;10.408;2023-02-22T03:51:48;7.90;99.90
7000;DHT22;3540;53.242;10.408;2023-02-22T03:54:14;7.90;99.90
7000;DHT22;3540;53.242;10.408;2023-02-22T03:56:49;8.00;99.90
7000;DHT22;3540;53.242;10.408;2023-02-22T03:59:17;7.90;99.90
7000;DHT22;3540;53.242;10.408;2023-02-22T04:01:44;7.90;99.90
7000;DHT22;3540;53.242;10.408;2023-02-22T04:04:09;7.90;99.90
7000;DHT22;3540;53.242;10.408;2023-02-22T04:06:35;7.90;99.90
7000;DHT22;3540;53.242;10.408;2023-02-22T04:09:00;7.90;99.90
7000;DHT22;3540;53.242;10.408;2023-02-22T04:11:26;7.90;99.90
7000;DHT22;3540;53.242;10.408;2023-02-22T04:13:52;7.90;99.90
7000;DHT22;3540;53.242;10.408;2023-02-22T04:16:19;7.90;99.90
7000;DHT22;3540;53.242;10.408;2023-02-22T04:18:44;8.00;99.90
7000;DHT22;3540;53.242;10.408;2023-02-22T04:21:10;8.00;99.90
7000;DHT22;3540;53.242;10.408;2023-02-22T04:23:36;8.00;99.90
7000;DHT22;3540;53.242;10.408;2023-02-22T04:26:02;8.10;99.90
7000;DHT22;3540;53.242;10.408;2023-02-22T04:28:27;8.00;99.90
7000;DHT22;3540;53.242;10.408;2023-02-22T04:30:53;8.10;99.90
7000;DHT22;3540;53.242;10.408;2023-02-22T04:33:19;8.00;99.90
7000;DHT22;3540;53.242;10.408;2023-02-22T04:35:44;8.00;99.90
7000;DHT22;3540;53.242;10.408;2023-02-22T04:38:10;8.00;99.90
7000;DHT22;3540;53.242;10.408;2023-02-22T04:40:36;8.10;99.90
7000;DHT22;3540;53.242;10.408;2023-02-22T04:43:01;8.10;99.90
7000;DHT22;3540;53.242;10.408;2023-02-22T04:45:27;8.10;99.90
7000;DHT22;3540;53.242;10.408;2023-02-22T04:47:52;8.10;99.90
7000;DHT22;3540;53.242;10.408;2023-02-22T04:50:18;8.10;99.90
7000;DHT22;3540;53.242;10.408;2023-02-22T04:52:44;8.10;99.90
7000;DHT22;3540;53.242;10.408;2023-02-22T04:55:10;8.10;99.90
7000;DHT22;3540;53.242;10.408;2023-02-22T04:57:36;8.00;99.90
7000;DHT22;3540;53.242;10.408;2023-02-22T05:00:03;8.00;99.90
7000;DHT22;3540;53.242;10.408;2023-02-22T05:02:32;8.00;99.90
7000;DHT22;3540;53.242;10.408;2023-02-22T05:04:58;8.10;99.90
7000;DHT22;3540;53.242;10.408;2023-02-22T05:07:23;8.00;99.90
7000;DHT22;3540;53.242;10.408;2023-02-22T05:09:49;8.10;99.90
7000;DHT22;3540;53.242;10.408;2023-02-22T05:12:14;8.00;99.90
7000;DHT22;3540;53.242;10.408;2023-02-22T05:14:40;8.10;99.90
7000;DHT22;3540;53.242;10.408;2023-02-22T05:17:06;8.00;99.90
7000;DHT22;3540;53.242;10.408;2023-02-22T05:19:32;8.10;99.90
7000;DHT22;3540;53.242;10.408;2023-02-22T05:21:57;8.10;99.90
7000;DHT22;3540;53.242;10.408;2023-02-22T05:24:23;8.10;99.90
7000;DHT22;3540;53.242;10.408;2023-02-22T05:26:48;8.10;99.90
7000;DHT22;3540;53.242;10.408;2023-02-22T05:29:16;8.10;99.90
7000;DHT22;3540;53.242;10.408;2023-02-22T05:31:41;8.10;99.90
7000;DHT22;3540;53.242;10.408;2023-02-22T05:34:07;8.10;99.90
7000;DHT22;3540;53.242;10.408;2023-02-22T05:36:33;8.10;99.90
7000;DHT22;3540;53.242;10.408;2023-02-22T05:38:58;8.10;99.90
7000;DHT22;3540;53.242;10.408;2023-02-22T05:41:24;8.10;99.90
7000;DHT22;3540;53.242;10.408;2023-02-22T05:43:49;8.00;99.90
7000;DHT22;3540;53.242;10.408;2023-02-22T05:46:15;8.00;99.90
7000;DHT22;3540;53.242;10.408;2023-02-22T05:48:41;8.10;99.90
7000;DHT22;3540;53.242;10.408;2023-02-22T05:51:06;8.00;99.90
7000;DHT22;3540;53.242;10.408;2023-02-22T05:53:34;8.00;99.90
7000;DHT22;3540;53.242;10.408;2023-02-22T05:56:00;8.00;99.90
7000;DHT22;3540;53.242;10.408;2023-02-22T05:58:25;8.00;99.90
7000;DHT22;3540;53.242;10.408;2023-02-22T06:00:51;8.00;99.90
7000;DHT22;3540;53.242;10.408;2023-02-22T06:03:17;8.00;99.90
7000;DHT22;3540;53.242;10.408;2023-02-22T06:05:42;8.10;99.90
7000;DHT22;3540;53.242;10.408;2023-02-22T06:08:08;8.10;99.90
7000;DHT22;3540;53.242;10.408;2023-02-22T06:10:34;8.10;99.90
7000;DHT22;3540;53.242;10.408;2023-02-22T06:13:00;8.10;99.90
7000;DHT22;3540;53.242;10.408;2023-02-22T06:15:28;8.00;99.90
7000;DHT22;3540;53.242;10.408;2023-02-22T06:17:54;8.00;99.90
7000;DHT22;3540;53.242;10.408;2023-02-22T06:20:22;8.00;99.90
7000;DHT22;3540;53.242;10.408;2023-02-22T06:22:50;8.00;99.90
7000;DHT22;3540;53.242;10.408;2023-02-22T06:25:18;8.00;99.90
7000;DHT22;3540;53.242;10.408;2023-02-22T06:27:44;8.00;99.90
7000;DHT22;3540;53.242;10.408;2023-02-22T06:30:11;8.00;99.90
7000;DHT22;3540;53.242;10.408;2023-02-22T06:32:37;8.00;99.90
7000;DHT22;3540;53.242;10.408;2023-02-22T06:35:03;8.00;99.90
7000;DHT22;3540;53.242;10.408;2023-02-22T06:37:29;8.00;99.90
7000;DHT22;3540;53.242;10.408;2023-02-22T06:39:54;8.00;99.90
7000;DHT22;3540;53.242;10.408;2023-02-22T06:42:20;8.00;99.90
7000;DHT22;3540;53.242;10.408;2023-02-22T06:44:46;8.00;99.90
7000;DHT22;3540;53.242;10.408;2023-02-22T06:47:11;8.00;99.90
7000;DHT22;3540;53.242;10.408;2023-02-22T06:49:37;8.00;99.90
7000;DHT22;3540;53.242;10.408;2023-02-22T06:52:04;8.00;99.90
7000;DHT22;3540;53.242;10.408;2023-02-22T06:54:30;8.00;99.90
7000;DHT22;3540;53.242;10.408;2023-02-22T06:56:56;8.00;99.90
7000;DHT22;3540;53.242;10.408;2023-02-22T06:59:21;8.00;99.90
7000;DHT22;3540;53.242;10.408;2023-02-22T07:01:48;8.00;99.90
7000;DHT22;3540;53.242;10.408;2023-02-22T07:04:14;8.10;99.90
7000;DHT22;3540;53.242;10.408;2023-02-22T07:06:45;8.10;99.90
7000;DHT22;3540;53.242;10.408;2023-02-22T07:09:11;8.10;99.90
7000;DHT22;3540;53.242;10.408;2023-02-22T07:11:38;8.10;99.90
7000;DHT22;3540;53.242;10.408;2023-02-22T07:14:04;8.10;99.90
7000;DHT22;3540;53.242;10.408;2023-02-22T07:16:30;8.10;99.90
7000;DHT22;3540;53.242;10.408;2023-02-22T07:18:55;8.10;99.90
7000;DHT22;3540;53.242;10.408;2023-02-22T07:21:21;8.10;99.90
7000;DHT22;3540;53.242;10.408;2023-02-22T07:23:51;8.20;99.90
7000;DHT22;3540;53.242;10.408;2023-02-22T07:26:18;8.30;99.90
7000;DHT22;3540;53.242;10.408;2023-02-22T07:28:44;8.30;99.90
7000;DHT22;3540;53.242;10.408;2023-02-22T07:31:09;8.30;99.90
7000;DHT22;3540;53.242;10.408;2023-02-22T07:33:35;8.30;99.90
7000;DHT22;3540;53.242;10.408;2023-02-22T07:36:00;8.30;99.90
7000;DHT22;3540;53.242;10.408;2023-02-22T07:38:26;8.30;99.90
7000;DHT22;3540;53.242;10.408;2023-02-22T07:40:53;8.40;99.90
7000;DHT22;3540;53.242;10.408;2023-02-22T07:45:51;8.40;99.90
7000;DHT22;3540;53.242;10.408;2023-02-22T07:48:19;8.30;99.90
7000;DHT22;3540;53.242;10.408;2023-02-22T07:50:45;8.40;99.90
7000;DHT22;3540;53.242;10.408;2023-02-22T07:53:12;8.40;99.90
7000;DHT22;3540;53.242;10.408;2023-02-22T07:55:38;8.50;99.90
7000;DHT22;3540;53.242;10.408;2023-02-22T07:58:06;8.50;99.90
7000;DHT22;3540;53.242;10.408;2023-02-22T08:00:38;8.50;99.90
7000;DHT22;3540;53.242;10.408;2023-02-22T08:03:09;8.60;99.90
7000;DHT22;3540;53.242;10.408;2023-02-22T08:05:37;8.50;99.90
7000;DHT22;3540;53.242;10.408;2023-02-22T08:08:03;8.70;99.90
7000;DHT22;3540;53.242;10.408;2023-02-22T08:10:30;8.60;99.90
7000;DHT22;3540;53.242;10.408;2023-02-22T08:12:56;8.70;99.90
7000;DHT22;3540;53.242;10.408;2023-02-22T08:15:28;8.70;99.90
7000;DHT22;3540;53.242;10.408;2023-02-22T08:17:54;8.70;99.90
7000;DHT22;3540;53.242;10.408;2023-02-22T08:20:20;8.70;99.90
7000;DHT22;3540;53.242;10.408;2023-02-22T08:22:47;8.70;99.90
7000;DHT22;3540;53.242;10.408;2023-02-22T08:25:15;8.80;99.90
7000;DHT22;3540;53.242;10.408;2023-02-22T08:27:41;8.80;99.90
7000;DHT22;3540;53.242;10.408;2023-02-22T08:30:07;8.70;99.90
7000;DHT22;3540;53.242;10.408;2023-02-22T08:32:33;8.70;99.90
7000;DHT22;3540;53.242;10.408;2023-02-22T08:35:01;8.70;99.90
7000;DHT22;3540;53.242;10.408;2023-02-22T08:37:26;8.70;99.90
7000;DHT22;3540;53.242;10.408;2023-02-22T08:39:53;8.80;99.90
7000;DHT22;3540;53.242;10.408;2023-02-22T08:42:20;8.70;99.90
7000;DHT22;3540;53.242;10.408;2023-02-22T08:44:46;8.80;99.90
7000;DHT22;3540;53.242;10.408;2023-02-22T08:47:11;8.90;99.90
7000;DHT22;3540;53.242;10.408;2023-02-22T08:49:37;9.00;99.90
7000;DHT22;3540;53.242;10.408;2023-02-22T08:52:03;9.00;99.90
7000;DHT22;3540;53.242;10.408;2023-02-22T08:54:28;8.90;99.90
7000;DHT22;3540;53.242;10.408;2023-02-22T08:56:54;9.00;99.90
7000;DHT22;3540;53.242;10.408;2023-02-22T08:59:19;8.90;99.90
7000;DHT22;3540;53.242;10.408;2023-02-22T09:01:45;8.90;99.90
7000;DHT22;3540;53.242;10.408;2023-02-22T09:04:11;8.90;99.90
7000;DHT22;3540;53.242;10.408;2023-02-22T09:06:39;8.90;99.90
7000;DHT22;3540;53.242;10.408;2023-02-22T09:09:05;9.00;99.90
7000;DHT22;3540;53.242;10.408;2023-02-22T09:11:32;9.10;99.90
7000;DHT22;3540;53.242;10.408;2023-02-22T09:13:58;9.20;99.90
7000;DHT22;3540;53.242;10.408;2023-02-22T09:16:23;9.10;99.90
7000;DHT22;3540;53.242;10.408;2023-02-22T09:18:49;9.10;99.90
7000;DHT22;3540;53.242;10.408;2023-02-22T09:21:14;9.10;99.90
7000;DHT22;3540;53.242;10.408;2023-02-22T09:23:40;9.30;99.90
7000;DHT22;3540;53.242;10.408;2023-02-22T09:26:09;9.40;99.90
7000;DHT22;3540;53.242;10.408;2023-02-22T09:28:34;9.40;99.90
7000;DHT22;3540;53.242;10.408;2023-02-22T09:31:00;9.40;99.90
7000;DHT22;3540;53.242;10.408;2023-02-22T09:33:26;9.40;99.90
7000;DHT22;3540;53.242;10.408;2023-02-22T09:35:52;9.40;99.90
7000;DHT22;3540;53.242;10.408;2023-02-22T09:38:20;9.50;99.90
7000;DHT22;3540;53.242;10.408;2023-02-22T09:41:35;9.40;99.90
7000;DHT22;3540;53.242;10.408;2023-02-22T09:46:41;9.70;99.90
7000;DHT22;3540;53.242;10.408;2023-02-22T09:52:15;9.80;99.90
7000;DHT22;3540;53.242;10.408;2023-02-22T09:54:44;9.90;99.90
7000;DHT22;3540;53.242;10.408;2023-02-22T09:57:21;10.00;99.90
7000;DHT22;3540;53.242;10.408;2023-02-22T09:59:58;10.00;99.90
7000;DHT22;3540;53.242;10.408;2023-02-22T10:02:36;9.90;99.90
7000;DHT22;3540;53.242;10.408;2023-02-22T10:07:45;10.10;99.90
7000;DHT22;3540;53.242;10.408;2023-02-22T10:10:20;10.20;99.90
7000;DHT22;3540;53.242;10.408;2023-02-22T10:15:53;10.40;99.90
7000;DHT22;3540;53.242;10.408;2023-02-22T10:18:42;10.60;99.90
7000;DHT22;3540;53.242;10.408;2023-02-22T10:26:40;10.70;99.90
7000;DHT22;3540;53.242;10.408;2023-02-22T10:32:05;10.70;99.90
7000;DHT22;3540;53.242;10.408;2023-02-22T10:34:40;10.70;99.90
7000;DHT22;3540;53.242;10.408;2023-02-22T10:37:24;10.80;99.90
7000;DHT22;3540;53.242;10.408;2023-02-22T10:39:54;10.90;99.90
7000;DHT22;3540;53.242;10.408;2023-02-22T10:42:24;11.20;99.90
7000;DHT22;3540;53.242;10.408;2023-02-22T10:44:50;11.40;99.90
7000;DHT22;3540;53.242;10.408;2023-02-22T10:47:17;11.60;99.90
7000;DHT22;3540;53.242;10.408;2023-02-22T10:49:51;11.60;99.90
7000;DHT22;3540;53.242;10.408;2023-02-22T10:52:28;11.70;99.90
7000;DHT22;3540;53.242;10.408;2023-02-22T10:54:56;11.70;99.90
7000;DHT22;3540;53.242;10.408;2023-02-22T10:57:26;11.40;99.90
7000;DHT22;3540;53.242;10.408;2023-02-22T10:59:52;11.50;99.90
7000;DHT22;3540;53.242;10.408;2023-02-22T11:02:26;11.30;99.90
7000;DHT22;3540;53.242;10.408;2023-02-22T11:04:55;11.40;99.90
7000;DHT22;3540;53.242;10.408;2023-02-22T11:07:33;11.50;99.90
7000;DHT22;3540;53.242;10.408;2023-02-22T11:10:02;11.50;99.90
7000;DHT22;3540;53.242;10.408;2023-02-22T11:14:59;11.40;99.90
7000;DHT22;3540;53.242;10.408;2023-02-22T11:17:53;11.50;99.90
7000;DHT22;3540;53.242;10.408;2023-02-22T11:20:25;11.70;99.90
7000;DHT22;3540;53.242;10.408;2023-02-22T11:22:59;11.80;99.90
7000;DHT22;3540;53.242;10.408;2023-02-22T11:25:31;11.90;99.90
7000;DHT22;3540;53.242;10.408;2023-02-22T11:28:11;11.80;99.90
7000;DHT22;3540;53.242;10.408;2023-02-22T11:30:41;11.80;99.90
7000;DHT22;3540;53.242;10.408;2023-02-22T11:35:56;11.90;99.90
7000;DHT22;3540;53.242;10.408;2023-02-22T11:38:27;11.80;99.90
7000;DHT22;3540;53.242;10.408;2023-02-22T11:43:34;11.70;99.90
7000;DHT22;3540;53.242;10.408;2023-02-22T11:48:27;11.90;99.90
7000;DHT22;3540;53.242;10.408;2023-02-22T11:53:38;12.00;99.90
7000;DHT22;3540;53.242;10.408;2023-02-22T11:58:53;11.60;99.90
7000;DHT22;3540;53.242;10.408;2023-02-22T12:01:42;11.60;99.90
7000;DHT22;3540;53.242;10.408;2023-02-22T12:04:19;11.50;99.90
7000;DHT22;3540;53.242;10.408;2023-02-22T12:15:02;11.60;99.90
7000;DHT22;3540;53.242;10.408;2023-02-22T12:20:22;11.70;99.90
7000;DHT22;3540;53.242;10.408;2023-02-22T12:23:02;11.80;99.90
7000;DHT22;3540;53.242;10.408;2023-02-22T12:25:33;11.90;99.90
7000;DHT22;3540;53.242;10.408;2023-02-22T12:30:40;12.20;99.90
7000;DHT22;3540;53.242;10.408;2023-02-22T12:33:16;12.30;99.90
7000;DHT22;3540;53.242;10.408;2023-02-22T12:35:49;12.40;99.90
7000;DHT22;3540;53.242;10.408;2023-02-22T12:38:38;12.30;99.90
7000;DHT22;3540;53.242;10.408;2023-02-22T12:41:26;12.40;99.90
7000;DHT22;3540;53.242;10.408;2023-02-22T12:44:17;12.50;99.90
7000;DHT22;3540;53.242;10.408;2023-02-22T12:46:49;12.40;99.90
7000;DHT22;3540;53.242;10.408;2023-02-22T12:49:44;12.50;99.90
7000;DHT22;3540;53.242;10.408;2023-02-22T12:52:41;12.60;99.90
7000;DHT22;3540;53.242;10.408;2023-02-22T12:55:23;12.70;99.90
7000;DHT22;3540;53.242;10.408;2023-02-22T12:57:54;12.80;99.90
7000;DHT22;3540;53.242;10.408;2023-02-22T13:03:33;12.80;99.90
7000;DHT22;3540;53.242;10.408;2023-02-22T13:14:24;12.90;99.90
7000;DHT22;3540;53.242;10.408;2023-02-22T13:22:22;13.00;99.90
7000;DHT22;3540;53.242;10.408;2023-02-22T13:25:24;12.80;99.90
7000;DHT22;3540;53.242;10.408;2023-02-22T13:27:53;13.00;99.90
7000;DHT22;3540;53.242;10.408;2023-02-22T13:31:09;13.10;99.90
7000;DHT22;3540;53.242;10.408;2023-02-22T13:41:37;12.80;99.90
7000;DHT22;3540;53.242;10.408;2023-02-22T13:49:51;12.70;99.90
7000;DHT22;3540;53.242;10.408;2023-02-22T13:52:26;12.60;99.90
7000;DHT22;3540;53.242;10.408;2023-02-22T13:55:03;12.50;99.90
7000;DHT22;3540;53.242;10.408;2023-02-22T14:13:17;12.30;99.90
7000;DHT22;3540;53.242;10.408;2023-02-22T14:18:48;12.10;99.90
7000;DHT22;3540;53.242;10.408;2023-02-22T14:21:19;12.10;99.90
7000;DHT22;3540;53.242;10.408;2023-02-22T14:23:49;12.10;99.90
7000;DHT22;3540;53.242;10.408;2023-02-22T14:26:30;12.00;99.90
7000;DHT22;3540;53.242;10.408;2023-02-22T14:34:13;12.00;99.90
7000;DHT22;3540;53.242;10.408;2023-02-22T14:42:23;12.10;99.90
7000;DHT22;3540;53.242;10.408;2023-02-22T14:44:57;12.10;99.90
7000;DHT22;3540;53.242;10.408;2023-02-22T14:50:40;12.00;99.90
7000;DHT22;3540;53.242;10.408;2023-02-22T14:53:21;12.00;99.90
7000;DHT22;3540;53.242;10.408;2023-02-22T14:56:05;12.00;99.90
7000;DHT22;3540;53.242;10.408;2023-02-22T15:03:45;11.90;99.90
7000;DHT22;3540;53.242;10.408;2023-02-22T15:08:44;11.70;99.90
7000;DHT22;3540;53.242;10.408;2023-02-22T15:11:28;11.80;99.90
7000;DHT22;3540;53.242;10.408;2023-02-22T15:13:57;11.60;99.90
7000;DHT22;3540;53.242;10.408;2023-02-22T15:16:26;11.70;99.90
7000;DHT22;3540;53.242;10.408;2023-02-22T15:19:13;11.70;99.90
7000;DHT22;3540;53.242;10.408;2023-02-22T15:21:46;11.70;99.90
7000;DHT22;3540;53.242;10.408;2023-02-22T15:24:21;11.60;99.90
7000;DHT22;3540;53.242;10.408;2023-02-22T15:26:47;11.70;99.90
7000;DHT22;3540;53.242;10.408;2023-02-22T15:31:57;11.70;99.90
7000;DHT22;3540;53.242;10.408;2023-02-22T15:34:27;11.60;99.90
7000;DHT22;3540;53.242;10.408;2023-02-22T15:36:54;11.60;99.90
7000;DHT22;3540;53.242;10.408;2023-02-22T15:39:22;11.50;99.90
7000;DHT22;3540;53.242;10.408;2023-02-22T15:44:27;11.50;99.90
7000;DHT22;3540;53.242;10.408;2023-02-22T15:46:53;11.50;99.90
7000;DHT22;3540;53.242;10.408;2023-02-22T15:49:22;11.50;99.90
7000;DHT22;3540;53.242;10.408;2023-02-22T15:52:00;11.40;99.90
7000;DHT22;3540;53.242;10.408;2023-02-22T15:54:26;11.40;99.90
7000;DHT22;3540;53.242;10.408;2023-02-22T15:56:52;11.40;99.90
7000;DHT22;3540;53.242;10.408;2023-02-22T15:59:23;11.40;99.90
7000;DHT22;3540;53.242;10.408;2023-02-22T16:01:54;11.30;99.90
7000;DHT22;3540;53.242;10.408;2023-02-22T16:04:23;11.30;99.90
7000;DHT22;3540;53.242;10.408;2023-02-22T16:06:52;11.20;99.90
7000;DHT22;3540;53.242;10.408;2023-02-22T16:09:25;11.10;99.90
7000;DHT22;3540;53.242;10.408;2023-02-22T16:14:44;11.00;99.90
7000;DHT22;3540;53.242;10.408;2023-02-22T16:19:56;10.90;99.90
7000;DHT22;3540;53.242;10.408;2023-02-22T16:27:45;10.80;99.90
7000;DHT22;3540;53.242;10.408;2023-02-22T16:32:47;10.60;99.90
7000;DHT22;3540;53.242;10.408;2023-02-22T16:35:13;10.60;99.90
7000;DHT22;3540;53.242;10.408;2023-02-22T16:37:55;10.50;99.90
7000;DHT22;3540;53.242;10.408;2023-02-22T16:43:06;10.50;99.90
7000;DHT22;3540;53.242;10.408;2023-02-22T16:45:33;10.40;99.90
7000;DHT22;3540;53.242;10.408;2023-02-22T16:48:00;10.30;99.90
7000;DHT22;3540;53.242;10.408;2023-02-22T16:50:29;10.30;99.90
7000;DHT22;3540;53.242;10.408;2023-02-22T16:52:55;10.20;99.90
7000;DHT22;3540;53.242;10.408;2023-02-22T16:55:23;10.20;99.90
7000;DHT22;3540;53.242;10.408;2023-02-22T16:57:49;10.20;99.90
7000;DHT22;3540;53.242;10.408;2023-02-22T17:00:22;10.20;99.90
7000;DHT22;3540;53.242;10.408;2023-02-22T17:02:57;10.10;99.90
7000;DHT22;3540;53.242;10.408;2023-02-22T17:05:23;10.10;99.90
7000;DHT22;3540;53.242;10.408;2023-02-22T17:07:48;10.10;99.90
7000;DHT22;3540;53.242;10.408;2023-02-22T17:10:16;10.10;99.90
7000;DHT22;3540;53.242;10.408;2023-02-22T17:12:48;10.10;99.90
7000;DHT22;3540;53.242;10.408;2023-02-22T17:17:47;10.00;99.90
7000;DHT22;3540;53.242;10.408;2023-02-22T17:20:13;10.00;99.90
7000;DHT22;3540;53.242;10.408;2023-02-22T17:22:39;10.00;99.90
7000;DHT22;3540;53.242;10.408;2023-02-22T17:25:26;10.00;99.90
7000;DHT22;3540;53.242;10.408;2023-02-22T17:27:53;9.90;99.90
7000;DHT22;3540;53.242;10.408;2023-02-22T17:30:19;9.90;99.90
7000;DHT22;3540;53.242;10.408;2023-02-22T17:32:47;9.80;99.90
7000;DHT22;3540;53.242;10.408;2023-02-22T17:35:15;9.90;99.90
7000;DHT22;3540;53.242;10.408;2023-02-22T17:37:42;9.80;99.90
7000;DHT22;3540;53.242;10.408;2023-02-22T17:40:10;9.80;99.90
7000;DHT22;3540;53.242;10.408;2023-02-22T17:42:39;9.80;99.90
7000;DHT22;3540;53.242;10.408;2023-02-22T17:45:05;9.70;99.90
7000;DHT22;3540;53.242;10.408;2023-02-22T17:47:31;9.70;99.90
7000;DHT22;3540;53.242;10.408;2023-02-22T17:49:56;9.80;99.90
7000;DHT22;3540;53.242;10.408;2023-02-22T17:52:22;9.70;99.90
7000;DHT22;3540;53.242;10.408;2023-02-22T17:54:48;9.80;99.90
7000;DHT22;3540;53.242;10.408;2023-02-22T17:57:15;9.70;99.90
7000;DHT22;3540;53.242;10.408;2023-02-22T17:59:43;9.70;99.90
7000;DHT22;3540;53.242;10.408;2023-02-22T18:02:09;9.70;99.90
7000;DHT22;3540;53.242;10.408;2023-02-22T18:04:35;9.60;99.90
7000;DHT22;3540;53.242;10.408;2023-02-22T18:07:01;9.60;99.90
7000;DHT22;3540;53.242;10.408;2023-02-22T18:09:28;9.60;99.90
7000;DHT22;3540;53.242;10.408;2023-02-22T18:11:54;9.50;99.90
7000;DHT22;3540;53.242;10.408;2023-02-22T18:14:19;9.50;99.90
7000;DHT22;3540;53.242;10.408;2023-02-22T18:16:46;9.50;99.90
7000;DHT22;3540;53.242;10.408;2023-02-22T18:19:11;9.50;99.90
7000;DHT22;3540;53.242;10.408;2023-02-22T18:21:37;9.40;99.90
7000;DHT22;3540;53.242;10.408;2023-02-22T18:24:03;9.40;99.90
7000;DHT22;3540;53.242;10.408;2023-02-22T18:26:28;9.40;99.90
7000;DHT22;3540;53.242;10.408;2023-02-22T18:28:54;9.30;99.90
7000;DHT22;3540;53.242;10.408;2023-02-22T18:31:21;9.30;99.90
7000;DHT22;3540;53.242;10.408;2023-02-22T18:33:49;9.30;99.90
7000;DHT22;3540;53.242;10.408;2023-02-22T18:36:16;9.20;99.90
7000;DHT22;3540;53.242;10.408;2023-02-22T18:38:47;9.20;99.90
7000;DHT22;3540;53.242;10.408;2023-02-22T18:41:14;9.20;99.90
7000;DHT22;3540;53.242;10.408;2023-02-22T18:43:43;9.20;99.90
7000;DHT22;3540;53.242;10.408;2023-02-22T18:46:18;9.20;99.90
7000;DHT22;3540;53.242;10.408;2023-02-22T18:48:45;9.20;99.90
7000;DHT22;3540;53.242;10.408;2023-02-22T18:51:13;9.10;99.90
7000;DHT22;3540;53.242;10.408;2023-02-22T18:53:40;9.10;99.90
7000;DHT22;3540;53.242;10.408;2023-02-22T18:56:12;9.00;99.90
7000;DHT22;3540;53.242;10.408;2023-02-22T18:58:38;9.00;99.90
7000;DHT22;3540;53.242;10.408;2023-02-22T19:01:05;9.00;99.90
7000;DHT22;3540;53.242;10.408;2023-02-22T19:03:31;9.00;99.90
7000;DHT22;3540;53.242;10.408;2023-02-22T19:06:02;9.00;99.90
7000;DHT22;3540;53.242;10.408;2023-02-22T19:08:29;8.90;99.90
7000;DHT22;3540;53.242;10.408;2023-02-22T19:11:02;8.90;99.90
7000;DHT22;3540;53.242;10.408;2023-02-22T19:13:29;8.90;99.90